Time,TemperatureF,DewpointF,PressureIn,WindDirection,WindDirectionDegrees,WindSpeedMPH,WindSpeedGustMPH,Humidity,HourlyPrecipIn,Conditions,Clouds,dailyrainin,SoftwareType,DateUTC
2013-05-09 00:01:00,58.3,56.9,29.34,North,353,0.0,0.0,95,0.00,RA,,0.00,WeatherDisplay:10.37,2013-05-09 04:01:00,
2013-05-09 00:06:00,58.3,56.9,29.34,North,353,0.0,0.0,95,0.00,RA,,0.00,WeatherDisplay:10.37,2013-05-09 04:06:00,
2013-05-09 00:11:00,58.1,56.7,29.34,North,353,0.0,0.0,95,0.00,CLR,,0.00,WeatherDisplay:10.37,2013-05-09 04:11:00,
2013-05-09 00:16:00,57.8,56.4,29.34,North,352,0.0,0.0,95,0.00,CLR,,0.00,WeatherDisplay:10.37,2013-05-09 04:16:00,
2013-05-09 00:21:00,57.6,56.2,29.34,North,352,0.0,0.0,95,0.00,CLR,,0.00,WeatherDisplay:10.37,2013-05-09 04:21:00,
2013-05-09 00:26:00,57.5,56.1,29.34,North,353,0.0,0.0,95,0.00,CLR,,0.00,WeatherDisplay:10.37,2013-05-09 04:26:00,
2013-05-09 00:31:00,57.2,55.8,29.34,North,353,0.0,0.0,95,0.00,CLR,,0.00,WeatherDisplay:10.37,2013-05-09 04:31:00,
2013-05-09 00:36:00,57.0,55.6,29.34,North,353,0.0,0.0,95,0.00,CLR,,0.00,WeatherDisplay:10.37,2013-05-09 04:36:00,
2013-05-09 00:41:00,56.9,55.5,29.34,North,353,0.0,0.0,95,0.00,CLR,,0.00,WeatherDisplay:10.37,2013-05-09 04:41:00,
2013-05-09 00:46:00,56.9,55.8,29.34,North,353,0.0,0.0,96,0.00,CLR,,0.00,WeatherDisplay:10.37,2013-05-09 04:46:00,
2013-05-09 00:51:00,56.9,55.8,29.34,North,352,0.0,0.0,96,0.00,CLR,,0.00,WeatherDisplay:10.37,2013-05-09 04:51:00,
2013-05-09 00:56:00,56.7,55.6,29.34,North,352,0.0,0.0,96,0.00,CLR,,0.00,WeatherDisplay:10.37,2013-05-09 04:56:00,
2013-05-09 01:01:00,56.6,55.5,29.34,North,353,0.0,0.0,96,0.00,CLR,,0.00,WeatherDisplay:10.37,2013-05-09 05:01:00,
2013-05-09 01:06:00,56.3,55.2,29.34,North,353,0.0,0.0,96,0.00,CLR,,0.00,WeatherDisplay:10.37,2013-05-09 05:06:00,
2013-05-09 01:11:00,56.2,55.1,29.34,North,352,0.0,0.0,96,0.00,CLR,,0.00,WeatherDisplay:10.37,2013-05-09 05:11:00,
2013-05-09 01:16:00,56.0,54.9,29.34,North,353,0.0,0.0,96,0.00,CLR,,0.00,WeatherDisplay:10.37,2013-05-09 05:16:00,
2013-05-09 01:21:00,55.9,54.8,29.34,North,353,0.0,0.0,96,0.00,CLR,,0.00,WeatherDisplay:10.37,2013-05-09 05:21:00,
2013-05-09 01:26:00,55.7,54.6,29.34,North,353,0.0,0.0,96,0.00,CLR,,0.00,WeatherDisplay:10.37,2013-05-09 05:26:00,
2013-05-09 01:31:00,55.7,54.6,29.34,North,352,0.0,0.0,96,0.00,CLR,,0.00,WeatherDisplay:10.37,2013-05-09 05:31:00,
2013-05-09 01:36:00,55.6,54.5,29.34,North,353,0.0,0.0,96,0.00,CLR,,0.00,WeatherDisplay:10.37,2013-05-09 05:36:00,
2013-05-09 01:41:00,55.6,54.5,29.34,North,352,0.0,0.0,96,0.00,CLR,,0.00,WeatherDisplay:10.37,2013-05-09 05:41:00,
2013-05-09 01:46:00,55.4,54.3,29.34,North,352,0.0,0.0,96,0.00,CLR,,0.00,WeatherDisplay:10.37,2013-05-09 05:46:00,
2013-05-09 01:51:00,55.6,54.8,29.34,North,352,0.0,0.0,97,0.00,CLR,,0.00,WeatherDisplay:10.37,2013-05-09 05:51:00,
2013-05-09 01:56:00,55.6,54.8,29.33,North,353,0.0,0.0,97,0.00,CLR,,0.00,WeatherDisplay:10.37,2013-05-09 05:56:00,
2013-05-09 02:01:00,55.6,54.8,29.33,North,352,0.0,0.0,97,0.00,CLR,,0.00,WeatherDisplay:10.37,2013-05-09 06:01:00,
2013-05-09 02:06:00,55.6,54.8,29.33,North,353,0.0,0.0,97,0.00,CLR,,0.00,WeatherDisplay:10.37,2013-05-09 06:06:00,
2013-05-09 02:11:00,55.4,54.6,29.33,North,353,0.0,0.0,97,0.00,CLR,,0.00,WeatherDisplay:10.37,2013-05-09 06:11:00,
2013-05-09 02:16:00,55.4,54.6,29.33,North,353,0.0,0.0,97,0.00,CLR,,0.00,WeatherDisplay:10.37,2013-05-09 06:16:00,
2013-05-09 02:21:00,55.4,54.6,29.33,North,353,0.0,0.0,97,0.00,CLR,,0.00,WeatherDisplay:10.37,2013-05-09 06:21:00,
2013-05-09 02:26:00,55.6,54.8,29.32,North,353,0.0,0.0,97,0.00,CLR,,0.00,WeatherDisplay:10.37,2013-05-09 06:26:00,
2013-05-09 02:32:00,55.6,54.8,29.32,North,352,0.0,0.0,97,0.00,CLR,,0.00,WeatherDisplay:10.37,2013-05-09 06:32:00,
2013-05-09 02:37:00,55.6,54.8,29.32,North,353,0.0,0.0,97,0.00,CLR,,0.00,WeatherDisplay:10.37,2013-05-09 06:37:00,
2013-05-09 02:42:00,55.7,54.9,29.32,North,352,0.0,0.0,97,0.00,CLR,,0.00,WeatherDisplay:10.37,2013-05-09 06:42:00,
2013-05-09 02:47:00,55.4,54.6,29.32,North,352,0.0,0.0,97,0.00,CLR,,0.00,WeatherDisplay:10.37,2013-05-09 06:47:00,
2013-05-09 02:52:00,55.4,54.6,29.32,North,352,0.0,0.0,97,0.00,CLR,,0.00,WeatherDisplay:10.37,2013-05-09 06:52:00,
2013-05-09 02:57:00,55.1,54.3,29.32,North,352,0.0,0.0,97,0.00,CLR,,0.00,WeatherDisplay:10.37,2013-05-09 06:57:00,
2013-05-09 03:02:00,54.8,54.0,29.32,North,353,0.0,0.0,97,0.00,CLR,,0.00,WeatherDisplay:10.37,2013-05-09 07:02:00,
2013-05-09 03:07:00,54.7,53.9,29.32,North,352,0.0,0.0,97,0.00,CLR,,0.00,WeatherDisplay:10.37,2013-05-09 07:07:00,
2013-05-09 03:12:00,54.5,53.7,29.32,North,353,0.0,0.0,97,0.00,CLR,,0.00,WeatherDisplay:10.37,2013-05-09 07:12:00,
2013-05-09 03:17:00,54.2,53.4,29.32,North,353,0.0,0.0,97,0.00,CLR,,0.00,WeatherDisplay:10.37,2013-05-09 07:17:00,
2013-05-09 03:22:00,54.1,53.3,29.32,North,352,0.0,0.0,97,0.00,CLR,,0.00,WeatherDisplay:10.37,2013-05-09 07:22:00,
2013-05-09 03:27:00,54.1,53.3,29.32,North,353,0.0,0.0,97,0.00,CLR,,0.00,WeatherDisplay:10.37,2013-05-09 07:27:00,
2013-05-09 03:32:00,54.1,53.3,29.32,North,353,0.0,0.0,97,0.00,CLR,,0.00,WeatherDisplay:10.37,2013-05-09 07:32:00,
2013-05-09 03:37:00,54.1,53.3,29.32,North,353,0.0,0.0,97,0.00,CLR,,0.00,WeatherDisplay:10.37,2013-05-09 07:37:00,
2013-05-09 03:42:00,53.8,53.0,29.32,North,353,0.0,0.0,97,0.00,CLR,,0.00,WeatherDisplay:10.37,2013-05-09 07:42:00,
2013-05-09 03:47:00,53.6,52.8,29.32,North,353,0.0,0.0,97,0.00,CLR,,0.00,WeatherDisplay:10.37,2013-05-09 07:47:00,
2013-05-09 03:52:00,53.6,53.0,29.32,North,352,2.3,0.0,98,0.00,CLR,,0.00,WeatherDisplay:10.37,2013-05-09 07:52:00,
2013-05-09 03:57:00,54.1,53.5,29.33,WSW,240,2.0,2.0,98,0.00,CLR,,0.00,WeatherDisplay:10.37,2013-05-09 07:57:00,
2013-05-09 04:02:00,54.4,53.8,29.33,WSW,240,3.5,3.5,98,0.00,CLR,,0.00,WeatherDisplay:10.37,2013-05-09 08:02:00,
2013-05-09 04:07:00,54.4,53.8,29.33,WSW,246,3.5,3.5,98,0.00,CLR,,0.00,WeatherDisplay:10.37,2013-05-09 08:07:00,
2013-05-09 04:12:00,54.5,54.2,29.33,WSW,244,0.0,0.3,99,0.00,CLR,,0.00,WeatherDisplay:10.37,2013-05-09 08:12:00,
2013-05-09 04:17:00,54.7,54.4,29.33,WSW,244,3.5,3.5,99,0.00,CLR,,0.00,WeatherDisplay:10.37,2013-05-09 08:17:00,
2013-05-09 04:22:00,54.5,54.2,29.33,WSW,244,3.5,3.5,99,0.00,CLR,,0.00,WeatherDisplay:10.37,2013-05-09 08:22:00,
2013-05-09 04:27:00,54.5,54.2,29.33,WSW,251,0.0,0.0,99,0.00,CLR,,0.00,WeatherDisplay:10.37,2013-05-09 08:27:00,
2013-05-09 04:32:00,54.5,54.2,29.33,WSW,251,2.3,2.3,99,0.00,CLR,,0.00,WeatherDisplay:10.37,2013-05-09 08:32:00,
2013-05-09 04:37:00,54.4,54.1,29.33,WSW,247,1.1,1.1,99,0.00,CLR,,0.00,WeatherDisplay:10.37,2013-05-09 08:37:00,
2013-05-09 04:42:00,54.4,54.1,29.33,WSW,237,2.3,2.3,99,0.00,CLR,,0.00,WeatherDisplay:10.37,2013-05-09 08:42:00,
2013-05-09 04:47:00,54.2,53.9,29.33,WSW,237,1.0,1.0,99,0.00,CLR,,0.00,WeatherDisplay:10.37,2013-05-09 08:47:00,
2013-05-09 04:52:00,54.1,53.8,29.33,WSW,237,0.0,0.0,99,0.00,CLR,,0.00,WeatherDisplay:10.37,2013-05-09 08:52:00,
2013-05-09 04:57:00,53.9,53.6,29.33,WSW,237,0.0,0.0,99,0.00,CLR,,0.00,WeatherDisplay:10.37,2013-05-09 08:57:00,
2013-05-09 05:02:00,53.8,53.5,29.33,WSW,237,0.0,0.0,99,0.00,CLR,,0.00,WeatherDisplay:10.37,2013-05-09 09:02:00,
2013-05-09 05:07:00,53.8,53.5,29.33,WSW,237,1.1,0.0,99,0.00,CLR,,0.00,WeatherDisplay:10.37,2013-05-09 09:07:00,
2013-05-09 05:12:00,53.6,53.3,29.34,SW,236,2.3,0.0,99,0.00,CLR,,0.00,WeatherDisplay:10.37,2013-05-09 09:12:00,
2013-05-09 05:17:00,53.5,53.2,29.34,SW,236,0.0,0.0,99,0.00,CLR,,0.00,WeatherDisplay:10.37,2013-05-09 09:17:00,
2013-05-09 05:22:00,53.5,53.2,29.34,SW,236,0.0,0.0,99,0.00,CLR,,0.00,WeatherDisplay:10.37,2013-05-09 09:22:00,
2013-05-09 05:27:00,53.3,53.0,29.34,SW,236,2.3,2.3,99,0.00,CLR,,0.00,WeatherDisplay:10.37,2013-05-09 09:27:00,
2013-05-09 05:32:00,53.3,53.0,29.34,SW,236,0.0,0.0,99,0.00,CLR,,0.00,WeatherDisplay:10.37,2013-05-09 09:32:00,
2013-05-09 05:37:00,53.2,52.9,29.34,SW,236,0.0,0.0,99,0.00,CLR,,0.00,WeatherDisplay:10.37,2013-05-09 09:37:00,
2013-05-09 05:42:00,53.1,52.8,29.34,SW,236,0.0,0.5,99,0.00,CLR,,0.00,WeatherDisplay:10.37,2013-05-09 09:42:00,
2013-05-09 05:47:00,52.9,52.6,29.34,SW,236,2.3,2.3,99,0.00,CLR,,0.00,WeatherDisplay:10.37,2013-05-09 09:47:00,
2013-05-09 05:52:00,52.9,52.6,29.34,SW,236,0.0,0.0,99,0.00,CLR,,0.00,WeatherDisplay:10.37,2013-05-09 09:52:00,
2013-05-09 05:57:00,52.8,52.5,29.34,SW,236,2.0,2.0,99,0.00,CLR,,0.00,WeatherDisplay:10.37,2013-05-09 09:57:00,
2013-05-09 06:02:00,52.8,52.5,29.34,WSW,239,3.5,0.0,99,0.00,CLR,,0.00,WeatherDisplay:10.37,2013-05-09 10:02:00,
2013-05-09 06:07:00,52.6,52.3,29.34,WSW,239,0.0,0.0,99,0.00,CLR,,0.00,WeatherDisplay:10.37,2013-05-09 10:07:00,
2013-05-09 06:12:00,52.6,52.3,29.34,WSW,239,0.0,0.0,99,0.00,CLR,,0.00,WeatherDisplay:10.37,2013-05-09 10:12:00,
2013-05-09 06:17:00,52.8,52.5,29.34,WNW,294,0.0,0.0,99,0.00,CLR,,0.00,WeatherDisplay:10.37,2013-05-09 10:17:00,
2013-05-09 06:22:00,52.8,52.5,29.34,West,272,2.3,2.3,99,0.00,CLR,,0.00,WeatherDisplay:10.37,2013-05-09 10:22:00,
2013-05-09 06:27:00,52.8,52.5,29.35,West,267,0.0,0.0,99,0.00,CLR,,0.00,WeatherDisplay:10.37,2013-05-09 10:27:00,
2013-05-09 06:32:00,52.8,52.5,29.35,West,267,0.0,0.0,99,0.00,CLR,,0.00,WeatherDisplay:10.37,2013-05-09 10:32:00,
2013-05-09 06:37:00,52.8,52.5,29.35,West,267,0.0,0.0,99,0.00,CLR,,0.00,WeatherDisplay:10.37,2013-05-09 10:37:00,
2013-05-09 06:42:00,52.8,52.8,29.36,West,267,1.0,1.0,100,0.00,CLR,,0.00,WeatherDisplay:10.37,2013-05-09 10:42:00,
2013-05-09 06:47:00,52.9,52.9,29.36,WSW,247,5.8,5.8,100,0.00,CLR,,0.00,WeatherDisplay:10.37,2013-05-09 10:47:00,
2013-05-09 06:52:00,53.1,53.1,29.36,WSW,247,0.0,0.0,100,0.00,CLR,,0.00,WeatherDisplay:10.37,2013-05-09 10:52:00,
2013-05-09 06:57:00,53.2,53.2,29.36,WSW,247,3.5,3.5,100,0.00,CLR,,0.00,WeatherDisplay:10.37,2013-05-09 10:57:00,
2013-05-09 07:02:00,53.3,53.3,29.36,WSW,243,3.5,3.5,100,0.00,CLR,,0.00,WeatherDisplay:10.37,2013-05-09 11:02:00,
2013-05-09 07:07:00,53.5,53.5,29.36,WSW,247,3.5,3.5,100,0.00,CLR,,0.00,WeatherDisplay:10.37,2013-05-09 11:07:00,
2013-05-09 07:12:00,53.6,53.6,29.37,WSW,247,2.0,2.0,100,0.00,CLR,,0.00,WeatherDisplay:10.37,2013-05-09 11:12:00,
2013-05-09 07:17:00,53.8,53.8,29.37,WSW,247,3.5,3.5,100,0.00,CLR,,0.00,WeatherDisplay:10.37,2013-05-09 11:17:00,
2013-05-09 07:22:00,53.9,53.9,29.37,WSW,247,2.3,0.0,100,0.00,CLR,,0.00,WeatherDisplay:10.37,2013-05-09 11:22:00,
2013-05-09 07:27:00,54.2,54.2,29.37,WSW,247,4.6,4.6,100,0.00,CLR,,0.00,WeatherDisplay:10.37,2013-05-09 11:27:00,
2013-05-09 07:32:00,54.5,54.5,29.37,WSW,247,1.1,0.0,100,0.00,CLR,,0.00,WeatherDisplay:10.37,2013-05-09 11:32:00,
2013-05-09 07:37:00,54.7,54.7,29.37,West,261,4.6,4.6,100,0.00,CLR,,0.00,WeatherDisplay:10.37,2013-05-09 11:37:00,
2013-05-09 07:42:00,55.0,55.0,29.38,WSW,256,3.5,3.5,100,0.00,CLR,,0.00,WeatherDisplay:10.37,2013-05-09 11:42:00,
2013-05-09 07:47:00,55.3,55.3,29.38,West,265,5.8,5.8,100,0.00,CLR,,0.00,WeatherDisplay:10.37,2013-05-09 11:47:00,
2013-05-09 07:52:00,55.6,55.6,29.38,WSW,248,3.5,3.5,100,0.00,CLR,,0.00,WeatherDisplay:10.37,2013-05-09 11:52:00,
2013-05-09 07:57:00,55.9,55.9,29.39,WSW,243,4.6,4.6,100,0.00,CLR,,0.00,WeatherDisplay:10.37,2013-05-09 11:57:00,
2013-05-09 08:02:00,56.2,56.2,29.39,WNW,291,4.6,4.6,100,0.00,CLR,,0.00,WeatherDisplay:10.37,2013-05-09 12:02:00,
2013-05-09 08:07:00,56.3,56.3,29.39,SW,224,4.6,4.6,100,0.00,CLR,,0.00,WeatherDisplay:10.37,2013-05-09 12:07:00,
2013-05-09 08:12:00,56.5,56.5,29.39,North,352,3.5,3.5,100,0.00,CLR,,0.00,WeatherDisplay:10.37,2013-05-09 12:12:00,
2013-05-09 08:17:00,56.6,56.6,29.39,West,260,3.5,3.5,100,0.00,CLR,,0.00,WeatherDisplay:10.37,2013-05-09 12:17:00,
2013-05-09 08:22:00,56.9,56.9,29.39,WSW,250,5.8,5.8,100,0.00,CLR,,0.00,WeatherDisplay:10.37,2013-05-09 12:22:00,
2013-05-09 08:27:00,56.9,56.9,29.39,SSE,147,0.0,0.0,100,0.00,CLR,,0.00,WeatherDisplay:10.37,2013-05-09 12:27:00,
2013-05-09 08:32:00,57.3,57.3,29.39,WSW,246,3.5,3.5,100,0.00,CLR,,0.00,WeatherDisplay:10.37,2013-05-09 12:32:00,
2013-05-09 08:37:00,57.3,57.3,29.39,WNW,287,2.3,2.3,100,0.00,CLR,,0.00,WeatherDisplay:10.37,2013-05-09 12:37:00,
2013-05-09 08:42:00,57.2,57.2,29.40,WSW,251,4.6,4.6,100,0.00,CLR,,0.00,WeatherDisplay:10.37,2013-05-09 12:42:00,
2013-05-09 08:47:00,57.3,57.3,29.40,WSW,244,2.3,2.3,100,0.00,CLR,,0.00,WeatherDisplay:10.37,2013-05-09 12:47:00,
2013-05-09 08:52:00,57.6,57.6,29.40,WSW,244,3.5,3.5,100,0.00,CLR,,0.00,WeatherDisplay:10.37,2013-05-09 12:52:00,
2013-05-09 08:57:00,58.0,58.0,29.40,WSW,244,3.5,3.5,100,0.00,CLR,,0.00,WeatherDisplay:10.37,2013-05-09 12:57:00,
2013-05-09 09:02:00,58.1,58.1,29.40,WSW,243,4.6,4.6,100,0.00,CLR,,0.00,WeatherDisplay:10.37,2013-05-09 13:02:00,
2013-05-09 09:07:00,58.1,58.1,29.40,WSW,241,5.8,5.8,100,0.00,CLR,,0.00,WeatherDisplay:10.37,2013-05-09 13:07:00,
2013-05-09 09:12:00,58.6,58.6,29.39,WSW,253,4.6,4.6,100,0.00,CLR,,0.00,WeatherDisplay:10.37,2013-05-09 13:12:00,
2013-05-09 09:17:00,58.9,58.9,29.39,West,278,5.8,5.8,100,0.00,CLR,,0.00,WeatherDisplay:10.37,2013-05-09 13:17:00,
2013-05-09 09:22:00,59.0,59.0,29.39,West,263,3.5,3.5,100,0.00,CLR,,0.00,WeatherDisplay:10.37,2013-05-09 13:22:00,
2013-05-09 09:27:00,59.3,59.3,29.40,SW,234,1.1,1.1,100,0.00,CLR,,0.00,WeatherDisplay:10.37,2013-05-09 13:27:00,
2013-05-09 09:32:00,59.9,59.9,29.40,WSW,256,3.5,3.5,100,0.00,CLR,,0.00,WeatherDisplay:10.37,2013-05-09 13:32:00,
2013-05-09 09:37:00,59.9,59.9,29.40,NW,308,3.5,3.5,100,0.00,CLR,,0.00,WeatherDisplay:10.37,2013-05-09 13:37:00,
2013-05-09 09:42:00,60.2,59.9,29.40,WSW,244,5.0,5.0,99,0.00,CLR,,0.00,WeatherDisplay:10.37,2013-05-09 13:42:00,
2013-05-09 09:47:00,60.5,59.6,29.40,WSW,241,5.8,5.8,97,0.00,CLR,,0.00,WeatherDisplay:10.37,2013-05-09 13:47:00,
2013-05-09 09:52:00,60.9,59.2,29.40,West,264,6.9,6.9,94,0.00,CLR,,0.00,WeatherDisplay:10.37,2013-05-09 13:52:00,
2013-05-09 09:57:00,61.5,59.2,29.40,West,277,1.1,0.0,92,0.00,CLR,,0.00,WeatherDisplay:10.37,2013-05-09 13:57:00,
2013-05-09 10:02:00,62.0,58.7,29.40,West,261,4.6,4.6,89,0.00,CLR,,0.00,WeatherDisplay:10.37,2013-05-09 14:02:00,
2013-05-09 10:07:00,62.6,59.0,29.40,NW,308,0.0,0.0,88,0.00,CLR,,0.00,WeatherDisplay:10.37,2013-05-09 14:07:00,
2013-05-09 10:12:00,63.2,58.6,29.40,WSW,244,5.8,5.8,85,0.00,CLR,,0.00,WeatherDisplay:10.37,2013-05-09 14:12:00,
2013-05-09 10:17:00,63.5,58.2,29.40,WNW,291,0.0,0.1,83,0.00,CLR,,0.00,WeatherDisplay:10.37,2013-05-09 14:17:00,
2013-05-09 10:22:00,63.5,57.6,29.40,WSW,246,4.6,4.6,81,0.00,CLR,,0.00,WeatherDisplay:10.37,2013-05-09 14:22:00,
2013-05-09 10:27:00,64.5,57.8,29.40,WSW,243,1.1,0.0,79,0.00,CLR,,0.00,WeatherDisplay:10.37,2013-05-09 14:27:00,
2013-05-09 10:32:00,65.0,57.2,29.40,North,1,5.8,5.8,76,0.00,CLR,,0.00,WeatherDisplay:10.37,2013-05-09 14:32:00,
2013-05-09 10:37:00,65.6,57.8,29.40,WSW,251,3.5,3.5,76,0.00,CLR,,0.00,WeatherDisplay:10.37,2013-05-09 14:37:00,
2013-05-09 10:42:00,66.1,57.6,29.41,West,260,5.0,5.0,74,0.00,CLR,,0.00,WeatherDisplay:10.37,2013-05-09 14:42:00,
2013-05-09 10:47:00,66.8,57.5,29.41,WNW,291,3.5,3.5,72,0.00,CLR,,0.00,WeatherDisplay:10.37,2013-05-09 14:47:00,
2013-05-09 10:52:00,67.3,56.4,29.41,North,11,5.0,5.0,68,0.00,CLR,,0.00,WeatherDisplay:10.37,2013-05-09 14:52:00,
2013-05-09 10:57:00,68.1,57.1,29.41,WSW,239,3.5,3.5,68,0.00,CLR,,0.00,WeatherDisplay:10.37,2013-05-09 14:57:00,
2013-05-09 11:02:00,68.3,56.5,29.41,SW,227,4.6,4.6,66,0.00,CLR,,0.00,WeatherDisplay:10.37,2013-05-09 15:02:00,
2013-05-09 11:07:00,68.8,56.6,29.41,WSW,241,6.0,6.0,65,0.00,CLR,,0.00,WeatherDisplay:10.37,2013-05-09 15:07:00,
2013-05-09 11:12:00,68.6,55.5,29.40,SW,227,0.0,0.0,63,0.00,CLR,,0.00,WeatherDisplay:10.37,2013-05-09 15:12:00,
2013-05-09 11:17:00,69.1,56.8,29.40,NNE,30,1.1,1.1,65,0.00,CLR,,0.00,WeatherDisplay:10.37,2013-05-09 15:17:00,
2013-05-09 11:22:00,69.6,56.0,29.40,WSW,241,0.0,1.7,62,0.00,CLR,,0.00,WeatherDisplay:10.37,2013-05-09 15:22:00,
2013-05-09 11:27:00,69.9,56.3,29.40,WNW,301,5.8,5.8,62,0.00,CLR,,0.00,WeatherDisplay:10.37,2013-05-09 15:27:00,
2013-05-09 11:32:00,70.3,56.2,29.40,SW,227,5.8,5.8,61,0.00,CLR,,0.00,WeatherDisplay:10.37,2013-05-09 15:32:00,
2013-05-09 11:37:00,69.8,56.2,29.40,WSW,250,10.4,10.4,62,0.00,CLR,,0.00,WeatherDisplay:10.37,2013-05-09 15:37:00,
2013-05-09 11:42:00,69.8,56.6,29.40,WSW,240,3.5,3.5,63,0.00,CLR,,0.00,WeatherDisplay:10.37,2013-05-09 15:42:00,
2013-05-09 11:47:00,70.4,56.3,29.40,WSW,247,3.5,3.5,61,0.00,CLR,,0.00,WeatherDisplay:10.37,2013-05-09 15:47:00,
2013-05-09 11:52:00,70.8,56.7,29.40,West,260,4.6,4.6,61,0.00,CLR,,0.00,WeatherDisplay:10.37,2013-05-09 15:52:00,
2013-05-09 11:57:00,70.9,55.4,29.40,SW,222,10.4,10.4,58,0.00,CLR,,0.00,WeatherDisplay:10.37,2013-05-09 15:57:00,
2013-05-09 12:02:00,71.5,55.9,29.40,WNW,299,4.6,0.0,58,0.00,CLR,,0.00,WeatherDisplay:10.37,2013-05-09 16:02:00,
2013-05-09 12:07:00,72.0,55.9,29.40,WNW,294,6.9,6.9,57,0.00,CLR,,0.00,WeatherDisplay:10.37,2013-05-09 16:07:00,
2013-05-09 12:12:00,72.5,54.9,29.40,West,265,5.8,5.8,54,0.00,CLR,,0.00,WeatherDisplay:10.37,2013-05-09 16:12:00,
2013-05-09 12:17:00,72.7,55.1,29.40,NW,315,3.5,3.5,54,0.00,CLR,,0.00,WeatherDisplay:10.37,2013-05-09 16:17:00,
2013-05-09 12:22:00,73.3,55.6,29.40,NNW,339,2.0,2.0,54,0.00,CLR,,0.00,WeatherDisplay:10.37,2013-05-09 16:22:00,
2013-05-09 12:27:00,73.3,56.7,29.39,West,268,3.5,0.0,56,0.00,CLR,,0.00,WeatherDisplay:10.37,2013-05-09 16:27:00,
2013-05-09 12:32:00,73.0,56.9,29.39,WSW,246,2.3,2.3,57,0.00,CLR,,0.00,WeatherDisplay:10.37,2013-05-09 16:32:00,
2013-05-09 12:37:00,73.0,55.4,29.39,NNW,342,2.3,2.3,54,0.00,CLR,,0.00,WeatherDisplay:10.37,2013-05-09 16:37:00,
2013-05-09 12:42:00,73.5,53.7,29.39,WSW,251,6.9,6.9,50,0.00,CLR,,0.00,WeatherDisplay:10.37,2013-05-09 16:42:00,
2013-05-09 12:47:00,73.7,53.3,29.39,WSW,244,11.5,11.5,49,0.00,CLR,,0.00,WeatherDisplay:10.37,2013-05-09 16:47:00,
2013-05-09 12:52:00,73.9,53.0,29.39,NNE,24,6.9,6.9,48,0.00,CLR,,0.00,WeatherDisplay:10.37,2013-05-09 16:52:00,
2013-05-09 12:57:00,74.0,54.2,29.39,West,281,4.6,4.6,50,0.00,CLR,,0.00,WeatherDisplay:10.37,2013-05-09 16:57:00,
2013-05-09 13:02:00,73.7,55.0,29.39,SW,216,3.5,3.5,52,0.00,CLR,,0.00,WeatherDisplay:10.37,2013-05-09 17:02:00,
2013-05-09 13:07:00,74.4,56.7,29.39,West,271,3.5,3.5,54,0.00,CLR,,0.00,WeatherDisplay:10.37,2013-05-09 17:07:00,
2013-05-09 13:12:00,74.0,56.3,29.38,West,271,3.5,3.5,54,0.00,CLR,,0.00,WeatherDisplay:10.37,2013-05-09 17:12:00,
2013-05-09 13:17:00,74.2,56.5,29.38,WSW,240,4.6,4.6,54,0.00,CLR,,0.00,WeatherDisplay:10.37,2013-05-09 17:17:00,
2013-05-09 13:22:00,74.6,56.3,29.38,WSW,257,4.6,4.6,53,0.00,CLR,,0.00,WeatherDisplay:10.37,2013-05-09 17:22:00,
2013-05-09 13:27:00,74.9,55.6,29.38,North,10,6.9,6.9,51,0.00,CLR,,0.00,WeatherDisplay:10.37,2013-05-09 17:27:00,
2013-05-09 13:32:00,75.1,56.3,29.38,SW,229,4.6,4.6,52,0.00,CLR,,0.00,WeatherDisplay:10.37,2013-05-09 17:32:00,
2013-05-09 13:37:00,75.3,55.4,29.38,West,263,6.9,6.9,50,0.00,CLR,,0.00,WeatherDisplay:10.37,2013-05-09 17:37:00,
2013-05-09 13:42:00,75.3,53.7,29.38,WNW,301,11.5,11.5,47,0.00,CLR,,0.00,WeatherDisplay:10.37,2013-05-09 17:42:00,
2013-05-09 13:47:00,75.8,56.4,29.38,WNW,294,9.2,9.2,51,0.00,CLR,,0.00,WeatherDisplay:10.37,2013-05-09 17:47:00,
2013-05-09 13:52:00,76.3,54.6,29.38,WSW,247,5.8,5.8,47,0.00,CLR,,0.00,WeatherDisplay:10.37,2013-05-09 17:52:00,
2013-05-09 13:57:00,76.3,54.6,29.38,WNW,285,3.5,3.5,47,0.00,CLR,,0.00,WeatherDisplay:10.37,2013-05-09 17:57:00,
2013-05-09 14:02:00,76.5,54.8,29.38,ENE,75,2.3,2.3,47,0.00,CLR,,0.00,WeatherDisplay:10.37,2013-05-09 18:02:00,
2013-05-09 14:08:00,76.7,53.1,29.38,SW,222,11.5,11.5,44,0.00,CLR,,0.00,WeatherDisplay:10.37,2013-05-09 18:08:00,
2013-05-09 14:13:00,76.7,53.1,29.38,NW,316,11.5,11.5,44,0.00,CLR,,0.00,WeatherDisplay:10.37,2013-05-09 18:13:00,
2013-05-09 14:18:00,76.7,53.1,29.38,WSW,247,11.5,11.5,44,0.00,CLR,,0.00,WeatherDisplay:10.37,2013-05-09 18:18:00,
2013-05-09 14:23:00,76.5,53.0,29.38,SW,233,2.3,2.3,44,0.00,CLR,,0.00,WeatherDisplay:10.37,2013-05-09 18:23:00,
2013-05-09 14:28:00,76.7,53.8,29.37,WSW,241,4.6,4.6,45,0.00,CLR,,0.00,WeatherDisplay:10.37,2013-05-09 18:28:00,
2013-05-09 14:33:00,77.2,54.2,29.37,NNW,328,2.3,2.3,45,0.00,CLR,,0.00,WeatherDisplay:10.37,2013-05-09 18:33:00,
2013-05-09 14:38:00,77.6,56.9,29.37,NNW,335,2.3,2.3,49,0.00,CLR,,0.00,WeatherDisplay:10.37,2013-05-09 18:38:00,
2013-05-09 14:43:00,77.9,53.6,29.37,WSW,251,5.0,5.0,43,0.00,CLR,,0.00,WeatherDisplay:10.37,2013-05-09 18:43:00,
2013-05-09 14:48:00,77.6,53.3,29.37,WSW,244,1.1,0.0,43,0.00,CLR,,0.00,WeatherDisplay:10.37,2013-05-09 18:48:00,
2013-05-09 14:53:00,77.7,53.4,29.37,SSW,199,6.9,6.9,43,0.00,CLR,,0.00,WeatherDisplay:10.37,2013-05-09 18:53:00,
2013-05-09 14:58:00,77.7,55.3,29.37,NW,305,10.4,10.4,46,0.00,CLR,,0.00,WeatherDisplay:10.37,2013-05-09 18:58:00,
2013-05-09 15:03:00,77.6,54.0,29.37,WSW,257,2.3,0.0,44,0.00,CLR,,0.00,WeatherDisplay:10.37,2013-05-09 19:03:00,
2013-05-09 15:08:00,78.3,54.6,29.37,NNE,17,3.5,3.5,44,0.00,CLR,,0.00,WeatherDisplay:10.37,2013-05-09 19:08:00,
2013-05-09 15:13:00,78.6,52.9,29.36,North,0,3.5,3.5,41,0.00,CLR,,0.00,WeatherDisplay:10.37,2013-05-09 19:13:00,
2013-05-09 15:18:00,78.6,52.3,29.36,SW,216,4.6,4.6,40,0.00,CLR,,0.00,WeatherDisplay:10.37,2013-05-09 19:18:00,
2013-05-09 15:23:00,78.5,52.8,29.36,NW,311,10.4,10.4,41,0.00,CLR,,0.00,WeatherDisplay:10.37,2013-05-09 19:23:00,
2013-05-09 15:28:00,78.8,53.8,29.36,North,6,1.1,1.1,42,0.00,CLR,,0.00,WeatherDisplay:10.37,2013-05-09 19:28:00,
2013-05-09 15:33:00,79.2,53.5,29.36,NW,308,4.6,4.6,41,0.00,CLR,,0.00,WeatherDisplay:10.37,2013-05-09 19:33:00,
2013-05-09 15:38:00,79.4,54.3,29.36,North,8,5.8,5.8,42,0.00,CLR,,0.00,WeatherDisplay:10.37,2013-05-09 19:38:00,
2013-05-09 15:43:00,79.0,54.6,29.36,NNE,20,0.0,0.4,43,0.00,CLR,,0.00,WeatherDisplay:10.37,2013-05-09 19:43:00,
2013-05-09 15:48:00,78.6,53.6,29.36,WNW,284,6.9,6.9,42,0.00,CLR,,0.00,WeatherDisplay:10.37,2013-05-09 19:48:00,
2013-05-09 15:53:00,78.5,54.1,29.36,North,8,8.1,8.1,43,0.00,CLR,,0.00,WeatherDisplay:10.37,2013-05-09 19:53:00,
2013-05-09 15:58:00,78.8,53.1,29.36,WSW,253,3.5,3.5,41,0.00,CLR,,0.00,WeatherDisplay:10.37,2013-05-09 19:58:00,
2013-05-09 16:03:00,78.8,53.8,29.36,West,277,0.0,0.0,42,0.00,CLR,,0.00,WeatherDisplay:10.37,2013-05-09 20:03:00,
2013-05-09 16:08:00,78.6,53.6,29.36,NNW,342,1.1,1.1,42,0.00,CLR,,0.00,WeatherDisplay:10.37,2013-05-09 20:08:00,
2013-05-09 16:13:00,79.2,54.1,29.36,ESE,102,10.4,10.4,42,0.00,CLR,,0.00,WeatherDisplay:10.37,2013-05-09 20:13:00,
2013-05-09 16:18:00,79.6,53.1,29.36,NW,306,3.5,3.5,40,0.00,CLR,,0.00,WeatherDisplay:10.37,2013-05-09 20:18:00,
2013-05-09 16:23:00,79.4,54.3,29.36,SSW,195,1.1,0.0,42,0.00,CLR,,0.00,WeatherDisplay:10.37,2013-05-09 20:23:00,
2013-05-09 16:28:00,79.4,53.6,29.36,WSW,240,0.0,0.4,41,0.00,CLR,,0.00,WeatherDisplay:10.37,2013-05-09 20:28:00,
2013-05-09 16:33:00,79.2,53.5,29.36,WSW,247,5.8,5.8,41,0.00,CLR,,0.00,WeatherDisplay:10.37,2013-05-09 20:33:00,
2013-05-09 16:38:00,79.0,53.3,29.36,SW,219,3.5,3.5,41,0.00,CLR,,0.00,WeatherDisplay:10.37,2013-05-09 20:38:00,
2013-05-09 16:43:00,79.2,54.1,29.36,WNW,299,2.3,2.3,42,0.00,CLR,,0.00,WeatherDisplay:10.37,2013-05-09 20:43:00,
2013-05-09 16:48:00,78.6,53.6,29.36,SW,229,0.0,0.0,42,0.00,CLR,,0.00,WeatherDisplay:10.37,2013-05-09 20:48:00,
2013-05-09 16:53:00,78.3,53.3,29.36,SW,224,0.0,0.0,42,0.00,CLR,,0.00,WeatherDisplay:10.37,2013-05-09 20:53:00,
2013-05-09 16:58:00,78.3,53.3,29.36,SW,224,0.0,0.0,42,0.00,CLR,,0.00,WeatherDisplay:10.37,2013-05-09 20:58:00,
2013-05-09 17:03:00,78.3,54.6,29.36,SW,224,0.0,0.0,44,0.00,CLR,,0.00,WeatherDisplay:10.37,2013-05-09 21:03:00,
2013-05-09 17:08:00,78.1,54.4,29.36,WSW,239,0.0,0.0,44,0.00,CLR,,0.00,WeatherDisplay:10.37,2013-05-09 21:08:00,
2013-05-09 17:13:00,78.1,55.0,29.36,North,0,0.0,0.0,45,0.00,CLR,,0.00,WeatherDisplay:10.37,2013-05-09 21:13:00,
2013-05-09 17:18:00,78.1,55.0,29.36,North,0,0.0,0.3,45,0.00,CLR,,0.00,WeatherDisplay:10.37,2013-05-09 21:18:00,
2013-05-09 17:23:00,78.1,54.4,29.36,North,0,0.0,0.0,44,0.00,CLR,,0.00,WeatherDisplay:10.37,2013-05-09 21:23:00,
2013-05-09 17:28:00,78.1,55.0,29.36,North,0,0.0,0.0,45,0.00,CLR,,0.00,WeatherDisplay:10.37,2013-05-09 21:28:00,
2013-05-09 17:33:00,78.3,55.2,29.36,North,0,0.0,0.0,45,0.00,CLR,,0.00,WeatherDisplay:10.37,2013-05-09 21:33:00,
2013-05-09 17:38:00,78.1,53.8,29.36,North,0,0.0,0.0,43,0.00,CLR,,0.00,WeatherDisplay:10.37,2013-05-09 21:38:00,
2013-05-09 17:43:00,78.5,54.8,29.36,North,0,0.0,0.0,44,0.00,CLR,,0.00,WeatherDisplay:10.37,2013-05-09 21:43:00,
2013-05-09 17:48:00,78.6,56.7,29.36,North,0,1.0,1.0,47,0.00,CLR,,0.00,WeatherDisplay:10.37,2013-05-09 21:48:00,
2013-05-09 17:53:00,78.8,54.4,29.36,North,0,0.0,0.0,43,0.00,CLR,,0.00,WeatherDisplay:10.37,2013-05-09 21:53:00,
2013-05-09 17:58:00,79.0,53.9,29.36,North,0,0.0,0.0,42,0.00,CLR,,0.00,WeatherDisplay:10.37,2013-05-09 21:58:00,
2013-05-09 18:03:00,79.2,55.4,29.36,North,0,0.0,0.0,44,0.00,CLR,,0.00,WeatherDisplay:10.37,2013-05-09 22:03:00,
2013-05-09 18:08:00,78.8,54.4,29.36,SW,216,0.0,0.0,43,0.00,CLR,,0.00,WeatherDisplay:10.37,2013-05-09 22:08:00,
2013-05-09 18:13:00,79.0,55.8,29.35,SW,216,0.0,0.0,45,0.00,CLR,,0.00,WeatherDisplay:10.37,2013-05-09 22:13:00,
2013-05-09 18:18:00,78.8,53.1,29.35,SW,216,1.1,1.1,41,0.00,CLR,,0.00,WeatherDisplay:10.37,2013-05-09 22:18:00,
2013-05-09 18:23:00,78.6,56.1,29.35,SW,216,0.0,0.0,46,0.00,CLR,,0.00,WeatherDisplay:10.37,2013-05-09 22:23:00,
2013-05-09 18:28:00,78.5,55.4,29.35,SW,216,0.0,0.0,45,0.00,CLR,,0.00,WeatherDisplay:10.37,2013-05-09 22:28:00,
2013-05-09 18:33:00,78.1,55.0,29.35,SW,216,1.1,0.0,45,0.00,CLR,,0.00,WeatherDisplay:10.37,2013-05-09 22:33:00,
2013-05-09 18:38:00,78.3,56.4,29.35,SW,216,0.0,0.0,47,0.00,CLR,,0.00,WeatherDisplay:10.37,2013-05-09 22:38:00,
2013-05-09 18:43:00,78.5,57.7,29.35,SW,216,0.0,0.0,49,0.00,CLR,,0.00,WeatherDisplay:10.37,2013-05-09 22:43:00,
2013-05-09 18:48:00,78.5,56.6,29.35,SW,216,0.0,0.0,47,0.00,CLR,,0.00,WeatherDisplay:10.37,2013-05-09 22:48:00,
2013-05-09 18:53:00,78.6,56.7,29.35,SW,216,0.0,0.0,47,0.00,CLR,,0.00,WeatherDisplay:10.37,2013-05-09 22:53:00,
2013-05-09 18:58:00,78.5,56.6,29.35,SW,216,0.0,0.0,47,0.00,CLR,,0.00,WeatherDisplay:10.37,2013-05-09 22:58:00,
2013-05-09 19:03:00,78.6,58.4,29.35,SW,216,0.0,0.0,50,0.00,CLR,,0.00,WeatherDisplay:10.37,2013-05-09 23:03:00,
2013-05-09 19:08:00,78.6,58.4,29.35,SW,216,0.0,0.0,50,0.00,CLR,,0.00,WeatherDisplay:10.37,2013-05-09 23:08:00,
2013-05-09 19:13:00,78.8,60.2,29.35,SW,216,0.0,0.0,53,0.00,CLR,,0.00,WeatherDisplay:10.37,2013-05-09 23:13:00,
2013-05-09 19:18:00,79.0,60.4,29.35,SW,216,0.0,0.0,53,0.00,CLR,,0.00,WeatherDisplay:10.37,2013-05-09 23:18:00,
2013-05-09 19:23:00,79.0,60.4,29.35,SW,216,0.0,0.0,53,0.00,CLR,,0.00,WeatherDisplay:10.37,2013-05-09 23:23:00,
2013-05-09 19:28:00,77.9,59.4,29.35,SW,216,0.0,0.0,53,0.00,CLR,,0.00,WeatherDisplay:10.37,2013-05-09 23:28:00,
2013-05-09 19:33:00,77.0,58.6,29.35,SW,216,0.0,0.0,53,0.00,CLR,,0.00,WeatherDisplay:10.37,2013-05-09 23:33:00,
2013-05-09 19:38:00,76.1,57.2,29.35,SW,216,0.0,0.0,52,0.00,CLR,,0.00,WeatherDisplay:10.37,2013-05-09 23:38:00,
2013-05-09 19:43:00,75.1,57.3,29.36,SW,216,0.0,0.0,54,0.00,CLR,,0.00,WeatherDisplay:10.37,2013-05-09 23:43:00,
2013-05-09 19:48:00,74.4,57.2,29.36,SW,216,0.0,0.0,55,0.00,CLR,,0.00,WeatherDisplay:10.37,2013-05-09 23:48:00,
2013-05-09 19:53:00,73.9,57.2,29.36,SW,216,0.0,0.0,56,0.00,CLR,,0.00,WeatherDisplay:10.37,2013-05-09 23:53:00,
2013-05-09 19:58:00,73.7,57.0,29.36,SW,216,0.0,0.0,56,0.00,CLR,,0.00,WeatherDisplay:10.37,2013-05-09 23:58:00,
2013-05-09 20:03:00,72.8,56.7,29.36,SW,216,0.0,0.0,57,0.00,CLR,,0.00,WeatherDisplay:10.37,2013-05-10 00:03:00,
2013-05-09 20:08:00,72.1,56.5,29.36,SW,216,0.0,0.0,58,0.00,CLR,,0.00,WeatherDisplay:10.37,2013-05-10 00:08:00,
2013-05-09 20:13:00,71.6,56.5,29.37,SW,216,0.0,0.0,59,0.00,CLR,,0.00,WeatherDisplay:10.37,2013-05-10 00:13:00,
2013-05-09 20:18:00,71.3,56.2,29.37,SW,216,0.0,0.0,59,0.00,CLR,,0.00,WeatherDisplay:10.37,2013-05-10 00:18:00,
2013-05-09 20:23:00,70.9,56.8,29.37,SW,216,0.0,0.0,61,0.00,CLR,,0.00,WeatherDisplay:10.37,2013-05-10 00:23:00,
2013-05-09 20:28:00,70.4,56.8,29.37,SW,216,0.0,0.0,62,0.00,CLR,,0.00,WeatherDisplay:10.37,2013-05-10 00:28:00,
2013-05-09 20:33:00,69.9,57.2,29.37,SW,216,0.0,0.0,64,0.00,CLR,,0.00,WeatherDisplay:10.37,2013-05-10 00:33:00,
2013-05-09 20:38:00,69.6,56.4,29.37,SW,216,0.0,0.0,63,0.00,CLR,,0.00,WeatherDisplay:10.37,2013-05-10 00:38:00,
2013-05-09 20:43:00,69.4,56.3,29.38,SW,216,0.0,0.0,63,0.00,CLR,,0.00,WeatherDisplay:10.37,2013-05-10 00:43:00,
2013-05-09 20:48:00,69.4,55.8,29.38,SW,216,1.1,1.1,62,0.00,CLR,,0.00,WeatherDisplay:10.37,2013-05-10 00:48:00,
2013-05-09 20:53:00,69.6,56.0,29.38,SW,216,0.0,0.0,62,0.00,CLR,,0.00,WeatherDisplay:10.37,2013-05-10 00:53:00,
2013-05-09 20:58:00,69.6,56.0,29.38,SW,216,0.0,0.0,62,0.00,CLR,,0.00,WeatherDisplay:10.37,2013-05-10 00:58:00,
2013-05-09 21:03:00,69.9,56.3,29.38,SSW,209,0.0,0.0,62,0.00,CLR,,0.00,WeatherDisplay:10.37,2013-05-10 01:03:00,
2013-05-09 21:08:00,69.9,56.3,29.38,SSW,209,0.0,0.0,62,0.00,CLR,,0.00,WeatherDisplay:10.37,2013-05-10 01:08:00,
2013-05-09 21:13:00,69.9,56.3,29.39,SSW,209,0.0,0.0,62,0.00,CLR,,0.00,WeatherDisplay:10.37,2013-05-10 01:13:00,
2013-05-09 21:18:00,69.8,56.2,29.39,SSW,209,0.0,0.0,62,0.00,CLR,,0.00,WeatherDisplay:10.37,2013-05-10 01:18:00,
2013-05-09 21:23:00,69.6,56.4,29.39,SSW,209,2.3,2.3,63,0.00,CLR,,0.00,WeatherDisplay:10.37,2013-05-10 01:23:00,
2013-05-09 21:28:00,69.4,56.3,29.40,SSW,209,0.0,0.0,63,0.00,CLR,,0.00,WeatherDisplay:10.37,2013-05-10 01:28:00,
2013-05-09 21:33:00,69.1,56.4,29.40,SSW,209,0.0,0.0,64,0.00,CLR,,0.00,WeatherDisplay:10.37,2013-05-10 01:33:00,
2013-05-09 21:38:00,68.9,56.6,29.40,WSW,240,3.0,3.0,65,0.00,CLR,,0.00,WeatherDisplay:10.37,2013-05-10 01:38:00,
2013-05-09 21:43:00,68.8,56.6,29.40,SW,236,3.5,0.0,65,0.00,CLR,,0.00,WeatherDisplay:10.37,2013-05-10 01:43:00,
2013-05-09 21:48:00,68.6,56.8,29.40,SW,222,0.0,0.0,66,0.00,CLR,,0.00,WeatherDisplay:10.37,2013-05-10 01:48:00,
2013-05-09 21:53:00,68.4,56.6,29.40,SW,222,2.3,2.3,66,0.00,CLR,,0.00,WeatherDisplay:10.37,2013-05-10 01:53:00,
2013-05-09 21:58:00,68.8,56.1,29.40,WSW,240,0.0,0.0,64,0.00,CLR,,0.00,WeatherDisplay:10.37,2013-05-10 01:58:00,
2013-05-09 22:03:00,68.9,56.2,29.40,WSW,239,1.1,1.1,64,0.00,CLR,,0.00,WeatherDisplay:10.37,2013-05-10 02:03:00,
2013-05-09 22:08:00,68.9,56.2,29.40,WSW,237,0.0,0.0,64,0.00,CLR,,0.00,WeatherDisplay:10.37,2013-05-10 02:08:00,
2013-05-09 22:13:00,68.9,56.2,29.40,SW,234,0.0,0.2,64,0.00,CLR,,0.00,WeatherDisplay:10.37,2013-05-10 02:13:00,
2013-05-09 22:18:00,68.8,56.1,29.40,SW,234,0.0,0.1,64,0.00,CLR,,0.00,WeatherDisplay:10.37,2013-05-10 02:18:00,
2013-05-09 22:23:00,68.6,56.4,29.40,SW,234,1.1,1.1,65,0.00,CLR,,0.00,WeatherDisplay:10.37,2013-05-10 02:23:00,
2013-05-09 22:28:00,68.4,56.2,29.40,SW,216,2.3,2.3,65,0.00,CLR,,0.00,WeatherDisplay:10.37,2013-05-10 02:28:00,
2013-05-09 22:33:00,68.4,56.2,29.40,SSW,213,1.1,1.1,65,0.00,CLR,,0.00,WeatherDisplay:10.37,2013-05-10 02:33:00,
2013-05-09 22:38:00,68.4,56.2,29.40,WSW,240,0.0,0.0,65,0.00,CLR,,0.00,WeatherDisplay:10.37,2013-05-10 02:38:00,
2013-05-09 22:43:00,68.4,56.2,29.40,WSW,241,2.3,2.3,65,0.00,CLR,,0.00,WeatherDisplay:10.37,2013-05-10 02:43:00,
2013-05-09 22:48:00,68.4,56.2,29.40,WSW,247,1.1,0.0,65,0.00,CLR,,0.00,WeatherDisplay:10.37,2013-05-10 02:48:00,
2013-05-09 22:53:00,68.3,56.1,29.40,WSW,243,2.3,2.3,65,0.00,CLR,,0.00,WeatherDisplay:10.37,2013-05-10 02:53:00,
2013-05-09 22:58:00,68.1,56.3,29.40,WSW,241,2.3,2.3,66,0.00,CLR,,0.00,WeatherDisplay:10.37,2013-05-10 02:58:00,
2013-05-09 23:03:00,68.1,56.3,29.40,SW,230,3.5,3.5,66,0.00,CLR,,0.00,WeatherDisplay:10.37,2013-05-10 03:03:00,
2013-05-09 23:08:00,68.3,56.1,29.40,SW,230,3.5,3.5,65,0.00,CLR,,0.00,WeatherDisplay:10.37,2013-05-10 03:08:00,
2013-05-09 23:13:00,68.3,56.1,29.40,WSW,248,5.8,5.8,65,0.00,CLR,,0.00,WeatherDisplay:10.37,2013-05-10 03:13:00,
2013-05-09 23:18:00,68.4,56.2,29.40,WSW,239,5.8,5.8,65,0.00,CLR,,0.00,WeatherDisplay:10.37,2013-05-10 03:18:00,
2013-05-09 23:23:00,68.4,56.2,29.40,SW,232,1.1,1.5,65,0.00,CLR,,0.00,WeatherDisplay:10.37,2013-05-10 03:23:00,
2013-05-09 23:28:00,68.6,55.9,29.40,WSW,243,2.3,2.3,64,0.00,CLR,,0.00,WeatherDisplay:10.37,2013-05-10 03:28:00,
2013-05-09 23:33:00,68.6,55.9,29.40,WSW,237,0.0,0.0,64,0.00,CLR,,0.00,WeatherDisplay:10.37,2013-05-10 03:33:00,
2013-05-09 23:38:00,68.4,55.7,29.40,WSW,240,0.0,0.0,64,0.00,CLR,,0.00,WeatherDisplay:10.37,2013-05-10 03:38:00,
2013-05-09 23:43:00,68.3,55.6,29.40,WSW,239,4.6,4.6,64,0.00,CLR,,0.00,WeatherDisplay:10.37,2013-05-10 03:43:00,
2013-05-09 23:48:00,68.4,55.3,29.40,WSW,241,3.5,3.5,63,0.00,CLR,,0.00,WeatherDisplay:10.37,2013-05-10 03:48:00,
2013-05-09 23:53:00,68.6,55.5,29.40,WSW,239,3.5,3.5,63,0.00,CLR,,0.00,WeatherDisplay:10.37,2013-05-10 03:53:00,
2013-05-09 23:58:00,68.6,55.5,29.40,SW,219,3.5,3.5,63,0.00,CLR,,0.00,WeatherDisplay:10.37,2013-05-10 03:58:00,